sensor_id;sensor_type;location;lat;lon;timestamp;pressure;altitude;pressure_sealevel;temperature;humidity
7962;BME280;4026;43.652;24.906;2023-05-11T00:00:23;99552.38;;;10.34;100.00
7962;BME280;4026;43.652;24.906;2023-05-11T00:02:50;99541.22;;;10.20;100.00
7962;BME280;4026;43.652;24.906;2023-05-11T00:05:17;99536.97;;;10.21;100.00
7962;BME280;4026;43.652;24.906;2023-05-11T00:07:43;99540.00;;;10.13;100.00
7962;BME280;4026;43.652;24.906;2023-05-11T00:10:10;99549.69;;;10.08;100.00
7962;BME280;4026;43.652;24.906;2023-05-11T00:12:37;99542.59;;;9.99;100.00
7962;BME280;4026;43.652;24.906;2023-05-11T00:15:06;99540.50;;;9.91;100.00
7962;BME280;4026;43.652;24.906;2023-05-11T00:17:33;99545.38;;;9.82;100.00
7962;BME280;4026;43.652;24.906;2023-05-11T00:20:00;99543.78;;;9.66;100.00
7962;BME280;4026;43.652;24.906;2023-05-11T00:22:27;99538.19;;;9.60;100.00
7962;BME280;4026;43.652;24.906;2023-05-11T00:24:54;99549.97;;;9.62;100.00
7962;BME280;4026;43.652;24.906;2023-05-11T00:27:21;99548.16;;;9.64;100.00
7962;BME280;4026;43.652;24.906;2023-05-11T00:29:47;99545.72;;;9.48;100.00
7962;BME280;4026;43.652;24.906;2023-05-11T00:32:15;99551.91;;;9.30;100.00
7962;BME280;4026;43.652;24.906;2023-05-11T00:34:42;99546.81;;;9.30;100.00
7962;BME280;4026;43.652;24.906;2023-05-11T00:37:09;99555.38;;;9.29;100.00
7962;BME280;4026;43.652;24.906;2023-05-11T00:39:36;99560.38;;;9.30;100.00
7962;BME280;4026;43.652;24.906;2023-05-11T00:42:04;99563.66;;;9.33;100.00
7962;BME280;4026;43.652;24.906;2023-05-11T00:44:31;99559.91;;;9.24;100.00
7962;BME280;4026;43.652;24.906;2023-05-11T00:46:58;99558.66;;;9.17;100.00
7962;BME280;4026;43.652;24.906;2023-05-11T00:49:28;99560.38;;;9.30;100.00
7962;BME280;4026;43.652;24.906;2023-05-11T00:51:55;99563.28;;;9.24;100.00
7962;BME280;4026;43.652;24.906;2023-05-11T00:54:22;99552.06;;;8.98;100.00
7962;BME280;4026;43.652;24.906;2023-05-11T00:56:50;99546.53;;;8.61;100.00
7962;BME280;4026;43.652;24.906;2023-05-11T00:59:17;99546.00;;;8.41;100.00
7962;BME280;4026;43.652;24.906;2023-05-11T01:01:44;99549.81;;;8.64;100.00
7962;BME280;4026;43.652;24.906;2023-05-11T01:04:11;99546.66;;;8.74;100.00
7962;BME280;4026;43.652;24.906;2023-05-11T01:06:46;99542.88;;;8.81;100.00
7962;BME280;4026;43.652;24.906;2023-05-11T01:09:25;99542.25;;;8.62;100.00
7962;BME280;4026;43.652;24.906;2023-05-11T01:12:02;99542.44;;;8.59;100.00
7962;BME280;4026;43.652;24.906;2023-05-11T01:14:34;99537.66;;;8.38;100.00
7962;BME280;4026;43.652;24.906;2023-05-11T01:17:09;99540.03;;;8.42;100.00
7962;BME280;4026;43.652;24.906;2023-05-11T01:19:41;99546.41;;;8.49;100.00
7962;BME280;4026;43.652;24.906;2023-05-11T01:22:23;99541.66;;;8.43;100.00
7962;BME280;4026;43.652;24.906;2023-05-11T01:25:17;99532.38;;;8.42;100.00
7962;BME280;4026;43.652;24.906;2023-05-11T01:28:03;99541.41;;;8.31;100.00
7962;BME280;4026;43.652;24.906;2023-05-11T01:30:42;99539.34;;;8.38;100.00
7962;BME280;4026;43.652;24.906;2023-05-11T01:33:13;99543.06;;;8.32;100.00
7962;BME280;4026;43.652;24.906;2023-05-11T01:35:43;99543.78;;;8.34;100.00
7962;BME280;4026;43.652;24.906;2023-05-11T01:38:13;99553.06;;;8.35;100.00
7962;BME280;4026;43.652;24.906;2023-05-11T01:40:42;99544.44;;;8.22;100.00
7962;BME280;4026;43.652;24.906;2023-05-11T01:43:12;99540.50;;;8.32;100.00
7962;BME280;4026;43.652;24.906;2023-05-11T01:45:45;99542.56;;;8.26;100.00
7962;BME280;4026;43.652;24.906;2023-05-11T01:48:17;99548.38;;;8.28;100.00
7962;BME280;4026;43.652;24.906;2023-05-11T01:50:45;99538.66;;;8.34;100.00
7962;BME280;4026;43.652;24.906;2023-05-11T01:53:12;99539.94;;;8.27;100.00
7962;BME280;4026;43.652;24.906;2023-05-11T01:55:41;99530.16;;;8.35;100.00
7962;BME280;4026;43.652;24.906;2023-05-11T01:58:09;99540.28;;;8.21;100.00
7962;BME280;4026;43.652;24.906;2023-05-11T02:00:36;99538.03;;;8.31;100.00
7962;BME280;4026;43.652;24.906;2023-05-11T02:03:06;99538.38;;;8.25;100.00
7962;BME280;4026;43.652;24.906;2023-05-11T02:05:35;99537.72;;;8.21;100.00
7962;BME280;4026;43.652;24.906;2023-05-11T02:08:04;99538.72;;;8.19;100.00
7962;BME280;4026;43.652;24.906;2023-05-11T02:10:32;99546.25;;;8.20;100.00
7962;BME280;4026;43.652;24.906;2023-05-11T02:13:01;99543.34;;;8.12;100.00
7962;BME280;4026;43.652;24.906;2023-05-11T02:15:29;99547.09;;;8.21;100.00
7962;BME280;4026;43.652;24.906;2023-05-11T02:17:57;99542.91;;;8.20;100.00
7962;BME280;4026;43.652;24.906;2023-05-11T02:20:26;99542.66;;;8.24;100.00
7962;BME280;4026;43.652;24.906;2023-05-11T02:22:54;99541.03;;;8.23;100.00
7962;BME280;4026;43.652;24.906;2023-05-11T02:25:22;99536.03;;;8.06;100.00
7962;BME280;4026;43.652;24.906;2023-05-11T02:27:49;99544.16;;;7.97;100.00
7962;BME280;4026;43.652;24.906;2023-05-11T02:30:16;99540.38;;;8.04;100.00
7962;BME280;4026;43.652;24.906;2023-05-11T02:32:48;99540.78;;;8.12;100.00
7962;BME280;4026;43.652;24.906;2023-05-11T02:35:21;99538.41;;;8.09;100.00
7962;BME280;4026;43.652;24.906;2023-05-11T02:37:53;99540.78;;;8.12;100.00
7962;BME280;4026;43.652;24.906;2023-05-11T02:40:25;99533.50;;;8.06;100.00
7962;BME280;4026;43.652;24.906;2023-05-11T02:42:56;99536.56;;;8.11;100.00
7962;BME280;4026;43.652;24.906;2023-05-11T02:45:27;99538.25;;;8.12;100.00
7962;BME280;4026;43.652;24.906;2023-05-11T02:47:57;99541.38;;;8.01;100.00
7962;BME280;4026;43.652;24.906;2023-05-11T02:50:27;99539.13;;;8.11;100.00
7962;BME280;4026;43.652;24.906;2023-05-11T02:53:00;99543.81;;;8.19;100.00
7962;BME280;4026;43.652;24.906;2023-05-11T02:55:29;99541.09;;;8.22;100.00
7962;BME280;4026;43.652;24.906;2023-05-11T02:57:57;99542.81;;;8.21;100.00
7962;BME280;4026;43.652;24.906;2023-05-11T03:00:24;99541.03;;;8.23;100.00
7962;BME280;4026;43.652;24.906;2023-05-11T03:02:51;99539.13;;;8.11;100.00
7962;BME280;4026;43.652;24.906;2023-05-11T03:05:18;99541.03;;;8.23;100.00
7962;BME280;4026;43.652;24.906;2023-05-11T03:07:45;99550.97;;;8.12;100.00
7962;BME280;4026;43.652;24.906;2023-05-11T03:10:13;99552.66;;;8.27;100.00
7962;BME280;4026;43.652;24.906;2023-05-11T03:12:40;99549.22;;;8.28;100.00
7962;BME280;4026;43.652;24.906;2023-05-11T03:15:08;99551.41;;;8.34;100.00
7962;BME280;4026;43.652;24.906;2023-05-11T03:17:38;99552.66;;;8.27;100.00
7962;BME280;4026;43.652;24.906;2023-05-11T03:20:07;99553.78;;;8.37;100.00
7962;BME280;4026;43.652;24.906;2023-05-11T03:22:37;99556.59;;;8.49;100.00
7962;BME280;4026;43.652;24.906;2023-05-11T03:25:06;99560.56;;;8.38;100.00
7962;BME280;4026;43.652;24.906;2023-05-11T03:27:36;99550.50;;;8.51;100.00
7962;BME280;4026;43.652;24.906;2023-05-11T03:30:06;99547.72;;;8.56;100.00
7962;BME280;4026;43.652;24.906;2023-05-11T03:32:34;99555.19;;;8.59;100.00
7962;BME280;4026;43.652;24.906;2023-05-11T03:35:02;99559.53;;;8.57;100.00
7962;BME280;4026;43.652;24.906;2023-05-11T03:37:29;99560.63;;;8.53;100.00
7962;BME280;4026;43.652;24.906;2023-05-11T03:39:58;99570.53;;;8.57;100.00
7962;BME280;4026;43.652;24.906;2023-05-11T03:42:26;99574.31;;;8.66;100.00
7962;BME280;4026;43.652;24.906;2023-05-11T03:44:55;99568.50;;;8.64;100.00
7962;BME280;4026;43.652;24.906;2023-05-11T03:47:25;99566.66;;;8.66;100.00
7962;BME280;4026;43.652;24.906;2023-05-11T03:49:53;99567.06;;;8.74;100.00
7962;BME280;4026;43.652;24.906;2023-05-11T03:52:20;99572.72;;;8.79;100.00
7962;BME280;4026;43.652;24.906;2023-05-11T03:54:48;99574.13;;;8.69;100.00
7962;BME280;4026;43.652;24.906;2023-05-11T03:57:15;99577.25;;;8.74;100.00
7962;BME280;4026;43.652;24.906;2023-05-11T03:59:42;99562.13;;;8.71;100.00
7962;BME280;4026;43.652;24.906;2023-05-11T04:02:10;99574.69;;;8.74;100.00
7962;BME280;4026;43.652;24.906;2023-05-11T04:04:37;99579.06;;;8.72;100.00
7962;BME280;4026;43.652;24.906;2023-05-11T04:07:03;99578.69;;;8.78;100.00
7962;BME280;4026;43.652;24.906;2023-05-11T04:09:30;99572.72;;;8.79;100.00
7962;BME280;4026;43.652;24.906;2023-05-11T04:11:57;99577.63;;;8.82;100.00
7962;BME280;4026;43.652;24.906;2023-05-11T04:14:24;99578.56;;;8.81;100.00
7962;BME280;4026;43.652;24.906;2023-05-11T04:16:51;99582.00;;;8.80;100.00
7962;BME280;4026;43.652;24.906;2023-05-11T04:19:19;99581.63;;;8.87;100.00
7962;BME280;4026;43.652;24.906;2023-05-11T04:21:45;99587.31;;;8.92;100.00
7962;BME280;4026;43.652;24.906;2023-05-11T04:24:12;99582.00;;;8.80;100.00
7962;BME280;4026;43.652;24.906;2023-05-11T04:26:39;99577.84;;;8.94;100.00
7962;BME280;4026;43.652;24.906;2023-05-11T04:29:06;99588.59;;;9.13;100.00
7962;BME280;4026;43.652;24.906;2023-05-11T04:31:33;99587.72;;;9.28;100.00
7962;BME280;4026;43.652;24.906;2023-05-11T04:33:59;99597.75;;;9.46;100.00
7962;BME280;4026;43.652;24.906;2023-05-11T04:36:28;99595.28;;;9.59;100.00
7962;BME280;4026;43.652;24.906;2023-05-11T04:38:54;99603.88;;;9.72;100.00
7962;BME280;4026;43.652;24.906;2023-05-11T04:41:21;99598.75;;;9.86;100.00
7962;BME280;4026;43.652;24.906;2023-05-11T04:43:48;99599.34;;;10.04;100.00
7962;BME280;4026;43.652;24.906;2023-05-11T04:46:15;99597.44;;;10.20;100.00
7962;BME280;4026;43.652;24.906;2023-05-11T04:48:41;99596.38;;;10.52;97.76
7962;BME280;4026;43.652;24.906;2023-05-11T04:51:08;99601.72;;;10.61;96.39
7962;BME280;4026;43.652;24.906;2023-05-11T04:53:37;99594.09;;;10.74;93.83
7962;BME280;4026;43.652;24.906;2023-05-11T04:56:04;99605.47;;;10.83;94.13
7962;BME280;4026;43.652;24.906;2023-05-11T04:58:31;99602.50;;;10.89;91.36
7962;BME280;4026;43.652;24.906;2023-05-11T05:00:57;99603.84;;;11.07;91.61
7962;BME280;4026;43.652;24.906;2023-05-11T05:03:24;99614.91;;;11.21;91.13
7962;BME280;4026;43.652;24.906;2023-05-11T05:05:51;99610.72;;;11.32;90.31
7962;BME280;4026;43.652;24.906;2023-05-11T05:08:18;99624.72;;;11.65;90.86
7962;BME280;4026;43.652;24.906;2023-05-11T05:10:47;99619.59;;;11.91;90.31
7962;BME280;4026;43.652;24.906;2023-05-11T05:13:14;99613.78;;;12.13;88.83
7962;BME280;4026;43.652;24.906;2023-05-11T05:15:42;99614.41;;;12.16;87.06
7962;BME280;4026;43.652;24.906;2023-05-11T05:18:08;99600.31;;;12.46;84.83
7962;BME280;4026;43.652;24.906;2023-05-11T05:20:35;99606.50;;;12.43;82.69
7962;BME280;4026;43.652;24.906;2023-05-11T05:23:02;99613.47;;;12.41;84.21
7962;BME280;4026;43.652;24.906;2023-05-11T05:25:29;99611.28;;;12.72;83.93
7962;BME280;4026;43.652;24.906;2023-05-11T05:27:57;99613.91;;;13.06;84.37
7962;BME280;4026;43.652;24.906;2023-05-11T05:30:24;99609.28;;;13.22;81.26
7962;BME280;4026;43.652;24.906;2023-05-11T05:32:51;99608.03;;;13.28;79.77
7962;BME280;4026;43.652;24.906;2023-05-11T05:35:19;99612.16;;;13.53;81.14
7962;BME280;4026;43.652;24.906;2023-05-11T05:37:46;99610.03;;;13.58;77.44
7962;BME280;4026;43.652;24.906;2023-05-11T05:40:12;99606.75;;;13.78;80.16
7962;BME280;4026;43.652;24.906;2023-05-11T05:42:39;99604.66;;;13.61;79.44
7962;BME280;4026;43.652;24.906;2023-05-11T05:45:09;99608.97;;;13.61;74.90
7962;BME280;4026;43.652;24.906;2023-05-11T05:47:36;99607.44;;;13.80;76.05
7962;BME280;4026;43.652;24.906;2023-05-11T05:50:04;99614.00;;;13.85;72.65
7962;BME280;4026;43.652;24.906;2023-05-11T05:52:31;99615.56;;;14.19;72.99
7962;BME280;4026;43.652;24.906;2023-05-11T05:54:58;99618.09;;;14.31;71.08
7962;BME280;4026;43.652;24.906;2023-05-11T05:57:25;99615.25;;;14.45;72.28
7962;BME280;4026;43.652;24.906;2023-05-11T05:59:54;99618.28;;;14.50;69.14
7962;BME280;4026;43.652;24.906;2023-05-11T06:02:23;99622.00;;;14.57;68.40
7962;BME280;4026;43.652;24.906;2023-05-11T06:04:49;99627.59;;;14.62;70.22
7962;BME280;4026;43.652;24.906;2023-05-11T06:07:16;99627.94;;;14.69;67.48
7962;BME280;4026;43.652;24.906;2023-05-11T06:09:43;99623.97;;;14.86;67.24
7962;BME280;4026;43.652;24.906;2023-05-11T06:12:10;99629.03;;;14.87;66.60
7962;BME280;4026;43.652;24.906;2023-05-11T06:14:36;99621.03;;;15.11;67.68
7962;BME280;4026;43.652;24.906;2023-05-11T06:17:03;99625.97;;;15.45;66.17
7962;BME280;4026;43.652;24.906;2023-05-11T06:19:31;99635.69;;;15.62;64.11
7962;BME280;4026;43.652;24.906;2023-05-11T06:21:58;99634.97;;;15.60;63.84
7962;BME280;4026;43.652;24.906;2023-05-11T06:24:25;99627.75;;;15.85;64.97
7962;BME280;4026;43.652;24.906;2023-05-11T06:26:52;99640.22;;;16.30;61.64
7962;BME280;4026;43.652;24.906;2023-05-11T06:29:19;99642.94;;;16.19;61.04
7962;BME280;4026;43.652;24.906;2023-05-11T06:31:46;99637.31;;;16.04;60.74
7962;BME280;4026;43.652;24.906;2023-05-11T06:34:17;99643.81;;;15.98;60.06
7962;BME280;4026;43.652;24.906;2023-05-11T06:36:46;99632.72;;;16.07;59.43
7962;BME280;4026;43.652;24.906;2023-05-11T06:39:12;99638.19;;;16.24;59.10
7962;BME280;4026;43.652;24.906;2023-05-11T06:41:39;99636.28;;;16.26;58.30
7962;BME280;4026;43.652;24.906;2023-05-11T06:44:06;99641.16;;;16.10;60.08
7962;BME280;4026;43.652;24.906;2023-05-11T06:46:33;99653.13;;;16.40;58.74
7962;BME280;4026;43.652;24.906;2023-05-11T06:49:00;99640.91;;;16.51;57.73
7962;BME280;4026;43.652;24.906;2023-05-11T06:51:27;99646.63;;;16.45;58.50
7962;BME280;4026;43.652;24.906;2023-05-11T06:53:55;99638.63;;;16.58;58.71
7962;BME280;4026;43.652;24.906;2023-05-11T06:56:22;99649.47;;;16.33;59.56
7962;BME280;4026;43.652;24.906;2023-05-11T06:58:49;99647.72;;;16.52;57.18
7962;BME280;4026;43.652;24.906;2023-05-11T07:01:15;99646.53;;;16.76;58.61
7962;BME280;4026;43.652;24.906;2023-05-11T07:03:42;99633.88;;;16.73;58.96
7962;BME280;4026;43.652;24.906;2023-05-11T07:06:09;99639.03;;;16.53;57.21
7962;BME280;4026;43.652;24.906;2023-05-11T07:08:36;99637.09;;;16.75;54.53
7962;BME280;4026;43.652;24.906;2023-05-11T07:11:04;99636.72;;;16.89;56.64
7962;BME280;4026;43.652;24.906;2023-05-11T07:13:31;99648.53;;;16.72;58.02
7962;BME280;4026;43.652;24.906;2023-05-11T07:15:57;99631.94;;;17.14;60.29
7962;BME280;4026;43.652;24.906;2023-05-11T07:18:24;99631.09;;;17.23;58.52
7962;BME280;4026;43.652;24.906;2023-05-11T07:20:51;99640.06;;;17.19;58.66
7962;BME280;4026;43.652;24.906;2023-05-11T07:23:18;99633.53;;;17.25;58.26
7962;BME280;4026;43.652;24.906;2023-05-11T07:25:45;99640.25;;;17.45;56.47
7962;BME280;4026;43.652;24.906;2023-05-11T07:28:13;99636.84;;;17.54;55.18
7962;BME280;4026;43.652;24.906;2023-05-11T07:30:40;99638.88;;;17.51;53.82
7962;BME280;4026;43.652;24.906;2023-05-11T07:33:06;99641.19;;;17.54;53.42
7962;BME280;4026;43.652;24.906;2023-05-11T07:35:33;99633.06;;;17.76;54.46
7962;BME280;4026;43.652;24.906;2023-05-11T07:38:00;99642.59;;;17.85;52.82
7962;BME280;4026;43.652;24.906;2023-05-11T07:40:28;99634.00;;;17.85;52.68
7962;BME280;4026;43.652;24.906;2023-05-11T07:42:55;99635.38;;;17.89;52.91
7962;BME280;4026;43.652;24.906;2023-05-11T07:45:23;99632.13;;;18.05;52.11
7962;BME280;4026;43.652;24.906;2023-05-11T07:47:50;99636.41;;;18.24;51.29
7962;BME280;4026;43.652;24.906;2023-05-11T07:50:17;99635.72;;;18.40;50.97
7962;BME280;4026;43.652;24.906;2023-05-11T07:52:44;99636.44;;;18.50;49.53
7962;BME280;4026;43.652;24.906;2023-05-11T07:55:11;99630.47;;;18.49;50.68
7962;BME280;4026;43.652;24.906;2023-05-11T07:57:37;99631.94;;;18.88;52.55
7962;BME280;4026;43.652;24.906;2023-05-11T08:00:05;99641.50;;;18.51;49.75
7962;BME280;4026;43.652;24.906;2023-05-11T08:02:35;99628.47;;;18.61;50.41
7962;BME280;4026;43.652;24.906;2023-05-11T08:05:02;99635.31;;;19.06;46.66
7962;BME280;4026;43.652;24.906;2023-05-11T08:07:28;99630.34;;;19.13;48.74
7962;BME280;4026;43.652;24.906;2023-05-11T08:09:55;99638.41;;;19.36;48.25
7962;BME280;4026;43.652;24.906;2023-05-11T08:12:22;99642.34;;;19.48;47.02
7962;BME280;4026;43.652;24.906;2023-05-11T08:14:49;99640.44;;;18.98;50.48
7962;BME280;4026;43.652;24.906;2023-05-11T08:17:15;99638.91;;;19.13;47.23
7962;BME280;4026;43.652;24.906;2023-05-11T08:19:44;99637.28;;;19.38;48.52
7962;BME280;4026;43.652;24.906;2023-05-11T08:22:10;99638.41;;;19.36;47.92
7962;BME280;4026;43.652;24.906;2023-05-11T08:24:37;99644.38;;;19.62;45.69
7962;BME280;4026;43.652;24.906;2023-05-11T08:27:04;99644.00;;;19.49;46.84
7962;BME280;4026;43.652;24.906;2023-05-11T08:29:31;99647.34;;;19.67;45.36
7962;BME280;4026;43.652;24.906;2023-05-11T08:31:58;99646.47;;;19.93;46.59
7962;BME280;4026;43.652;24.906;2023-05-11T08:34:25;99644.53;;;19.95;44.98
7962;BME280;4026;43.652;24.906;2023-05-11T08:36:54;99639.19;;;19.97;46.42
7962;BME280;4026;43.652;24.906;2023-05-11T08:39:21;99645.84;;;19.99;44.70
7962;BME280;4026;43.652;24.906;2023-05-11T08:41:48;99637.25;;;20.07;45.51
7962;BME280;4026;43.652;24.906;2023-05-11T08:44:15;99640.09;;;20.38;42.86
7962;BME280;4026;43.652;24.906;2023-05-11T08:46:44;99630.28;;;20.16;42.97
7962;BME280;4026;43.652;24.906;2023-05-11T08:49:14;99644.53;;;19.95;44.07
7962;BME280;4026;43.652;24.906;2023-05-11T08:51:41;99626.72;;;20.08;44.63
7962;BME280;4026;43.652;24.906;2023-05-11T08:54:09;99629.38;;;20.41;47.09
7962;BME280;4026;43.652;24.906;2023-05-11T08:56:40;99638.47;;;20.37;42.93
7962;BME280;4026;43.652;24.906;2023-05-11T08:59:07;99627.06;;;20.13;44.37
7962;BME280;4026;43.652;24.906;2023-05-11T09:01:35;99637.94;;;20.17;44.79
7962;BME280;4026;43.652;24.906;2023-05-11T09:04:03;99626.16;;;20.39;44.12
7962;BME280;4026;43.652;24.906;2023-05-11T09:06:31;99626.81;;;20.74;42.59
7962;BME280;4026;43.652;24.906;2023-05-11T09:08:59;99611.38;;;20.56;43.87
7962;BME280;4026;43.652;24.906;2023-05-11T09:11:28;99624.06;;;20.84;42.96
7962;BME280;4026;43.652;24.906;2023-05-11T09:13:55;99631.16;;;21.14;40.46
7962;BME280;4026;43.652;24.906;2023-05-11T09:16:22;99627.53;;;21.32;42.28
7962;BME280;4026;43.652;24.906;2023-05-11T09:18:50;99624.78;;;21.33;41.58
7962;BME280;4026;43.652;24.906;2023-05-11T09:21:17;99629.41;;;21.07;39.08
7962;BME280;4026;43.652;24.906;2023-05-11T09:23:48;99632.47;;;21.02;37.91
7962;BME280;4026;43.652;24.906;2023-05-11T09:26:15;99626.47;;;20.85;37.25
7962;BME280;4026;43.652;24.906;2023-05-11T09:28:51;99622.97;;;21.50;38.10
7962;BME280;4026;43.652;24.906;2023-05-11T09:31:37;99614.63;;;21.63;34.70
7962;BME280;4026;43.652;24.906;2023-05-11T09:34:10;99618.47;;;21.75;35.99
7962;BME280;4026;43.652;24.906;2023-05-11T09:36:38;99616.25;;;20.92;37.34
7962;BME280;4026;43.652;24.906;2023-05-11T09:39:05;99620.44;;;20.35;37.94
7962;BME280;4026;43.652;24.906;2023-05-11T09:41:31;99616.03;;;20.20;36.74
7962;BME280;4026;43.652;24.906;2023-05-11T09:44:07;99619.09;;;20.15;38.41
7962;BME280;4026;43.652;24.906;2023-05-11T09:46:36;99616.72;;;20.46;39.42
7962;BME280;4026;43.652;24.906;2023-05-11T09:49:03;99614.47;;;20.68;38.68
7962;BME280;4026;43.652;24.906;2023-05-11T09:51:32;99609.72;;;20.39;38.07
7962;BME280;4026;43.652;24.906;2023-05-11T09:54:00;99603.41;;;20.90;36.89
7962;BME280;4026;43.652;24.906;2023-05-11T09:56:45;99611.53;;;20.95;36.43
7962;BME280;4026;43.652;24.906;2023-05-11T09:59:16;99600.00;;;20.49;38.75
7962;BME280;4026;43.652;24.906;2023-05-11T10:01:43;99600.19;;;20.80;38.17
7962;BME280;4026;43.652;24.906;2023-05-11T10:04:09;99597.88;;;20.28;38.35
7962;BME280;4026;43.652;24.906;2023-05-11T10:06:46;99599.50;;;20.29;39.46
7962;BME280;4026;43.652;24.906;2023-05-11T10:09:15;99597.88;;;20.44;41.41
7962;BME280;4026;43.652;24.906;2023-05-11T10:11:44;99587.84;;;20.57;40.02
7962;BME280;4026;43.652;24.906;2023-05-11T10:14:12;99587.66;;;20.92;40.75
7962;BME280;4026;43.652;24.906;2023-05-11T10:16:41;99579.38;;;20.88;39.47
7962;BME280;4026;43.652;24.906;2023-05-11T10:19:09;99579.78;;;21.24;39.29
7962;BME280;4026;43.652;24.906;2023-05-11T10:21:36;99583.53;;;21.22;38.88
7962;BME280;4026;43.652;24.906;2023-05-11T10:24:04;99570.31;;;21.40;40.39
7962;BME280;4026;43.652;24.906;2023-05-11T10:26:32;99564.09;;;21.80;39.77
7962;BME280;4026;43.652;24.906;2023-05-11T10:28:59;99575.13;;;20.95;37.87
7962;BME280;4026;43.652;24.906;2023-05-11T10:31:27;99568.47;;;21.57;37.69
7962;BME280;4026;43.652;24.906;2023-05-11T10:33:56;99573.25;;;21.29;35.85
7962;BME280;4026;43.652;24.906;2023-05-11T10:36:23;99569.94;;;20.95;37.32
7962;BME280;4026;43.652;24.906;2023-05-11T10:38:51;99574.72;;;21.31;38.89
7962;BME280;4026;43.652;24.906;2023-05-11T10:41:32;99565.84;;;21.57;38.92
7962;BME280;4026;43.652;24.906;2023-05-11T10:44:19;99570.13;;;21.81;37.09
7962;BME280;4026;43.652;24.906;2023-05-11T10:47:05;99559.75;;;20.53;36.81
7962;BME280;4026;43.652;24.906;2023-05-11T10:49:50;99562.50;;;20.51;39.59
7962;BME280;4026;43.652;24.906;2023-05-11T10:52:35;99561.16;;;20.96;39.78
7962;BME280;4026;43.652;24.906;2023-05-11T10:55:12;99553.00;;;21.08;39.13
7962;BME280;4026;43.652;24.906;2023-05-11T10:57:59;99554.56;;;21.41;39.69
7962;BME280;4026;43.652;24.906;2023-05-11T11:03:55;99552.22;;;21.46;37.66
7962;BME280;4026;43.652;24.906;2023-05-11T11:06:24;99546.13;;;21.23;37.72
7962;BME280;4026;43.652;24.906;2023-05-11T11:08:54;99547.00;;;21.07;37.77
7962;BME280;4026;43.652;24.906;2023-05-11T11:11:29;99552.16;;;21.23;39.65
7962;BME280;4026;43.652;24.906;2023-05-11T11:13:57;99548.72;;;21.23;39.00
7962;BME280;4026;43.652;24.906;2023-05-11T11:16:27;99555.59;;;21.16;38.78
7962;BME280;4026;43.652;24.906;2023-05-11T11:21:55;99551.47;;;20.25;40.18
7962;BME280;4026;43.652;24.906;2023-05-11T11:24:44;99541.00;;;21.07;40.79
7962;BME280;4026;43.652;24.906;2023-05-11T11:27:11;99534.03;;;20.99;40.85
7962;BME280;4026;43.652;24.906;2023-05-11T11:29:38;99530.53;;;21.23;43.32
7962;BME280;4026;43.652;24.906;2023-05-11T11:32:24;99527.84;;;21.47;40.97
7962;BME280;4026;43.652;24.906;2023-05-11T11:34:52;99526.00;;;21.17;38.24
7962;BME280;4026;43.652;24.906;2023-05-11T11:37:20;99534.25;;;21.20;39.89
7962;BME280;4026;43.652;24.906;2023-05-11T11:39:54;99526.59;;;21.35;41.03
7962;BME280;4026;43.652;24.906;2023-05-11T11:42:35;99536.09;;;21.59;41.94
7962;BME280;4026;43.652;24.906;2023-05-11T11:45:25;99528.53;;;21.41;40.63
7962;BME280;4026;43.652;24.906;2023-05-11T11:48:10;99528.28;;;21.12;40.67
7962;BME280;4026;43.652;24.906;2023-05-11T11:50:39;99517.50;;;21.31;41.99
7962;BME280;4026;43.652;24.906;2023-05-11T11:53:11;99509.81;;;21.46;40.94
7962;BME280;4026;43.652;24.906;2023-05-11T11:55:48;99510.34;;;21.33;41.53
7962;BME280;4026;43.652;24.906;2023-05-11T11:58:56;99512.41;;;20.98;42.40
7962;BME280;4026;43.652;24.906;2023-05-11T12:01:25;99508.22;;;20.89;41.54
7962;BME280;4026;43.652;24.906;2023-05-11T12:04:25;99503.97;;;20.96;43.32
7962;BME280;4026;43.652;24.906;2023-05-11T12:06:57;99498.25;;;21.09;43.00
7962;BME280;4026;43.652;24.906;2023-05-11T12:09:26;99504.50;;;21.23;43.99
7962;BME280;4026;43.652;24.906;2023-05-11T12:11:53;99500.38;;;21.45;43.30
7962;BME280;4026;43.652;24.906;2023-05-11T12:14:21;99497.69;;;21.22;41.57
7962;BME280;4026;43.652;24.906;2023-05-11T12:17:05;99499.00;;;20.70;44.79
7962;BME280;4026;43.652;24.906;2023-05-11T12:19:38;99500.97;;;20.68;44.07
7962;BME280;4026;43.652;24.906;2023-05-11T12:22:05;99493.66;;;20.72;43.86
7962;BME280;4026;43.652;24.906;2023-05-11T12:24:33;99487.97;;;21.16;43.88
7962;BME280;4026;43.652;24.906;2023-05-11T12:27:02;99506.28;;;21.31;43.17
7962;BME280;4026;43.652;24.906;2023-05-11T12:29:29;99492.03;;;21.18;42.03
7962;BME280;4026;43.652;24.906;2023-05-11T12:31:57;99496.13;;;21.13;42.98
7962;BME280;4026;43.652;24.906;2023-05-11T12:34:24;99480.56;;;20.96;43.97
7962;BME280;4026;43.652;24.906;2023-05-11T12:36:53;99483.84;;;20.90;44.20
7962;BME280;4026;43.652;24.906;2023-05-11T12:39:21;99474.31;;;21.14;44.53
7962;BME280;4026;43.652;24.906;2023-05-11T12:41:50;99469.13;;;21.14;43.70
7962;BME280;4026;43.652;24.906;2023-05-11T12:44:19;99468.47;;;21.12;41.75
7962;BME280;4026;43.652;24.906;2023-05-11T12:46:47;99470.50;;;21.01;44.32
7962;BME280;4026;43.652;24.906;2023-05-11T12:49:18;99458.94;;;21.04;43.06
7962;BME280;4026;43.652;24.906;2023-05-11T12:51:50;99462.06;;;20.91;44.08
7962;BME280;4026;43.652;24.906;2023-05-11T12:54:25;99461.50;;;20.65;43.56
7962;BME280;4026;43.652;24.906;2023-05-11T12:56:53;99461.50;;;20.65;45.61
7962;BME280;4026;43.652;24.906;2023-05-11T12:59:32;99461.69;;;20.63;44.91
7962;BME280;4026;43.652;24.906;2023-05-11T13:02:07;99460.25;;;20.52;43.43
7962;BME280;4026;43.652;24.906;2023-05-11T13:04:35;99455.69;;;20.30;44.63
7962;BME280;4026;43.652;24.906;2023-05-11T13:07:02;99445.31;;;20.30;45.57
7962;BME280;4026;43.652;24.906;2023-05-11T13:09:29;99444.47;;;20.46;46.81
7962;BME280;4026;43.652;24.906;2023-05-11T13:12:08;99448.22;;;20.51;45.55
7962;BME280;4026;43.652;24.906;2023-05-11T13:14:35;99442.69;;;20.63;45.40
7962;BME280;4026;43.652;24.906;2023-05-11T13:17:02;99444.66;;;20.52;45.49
7962;BME280;4026;43.652;24.906;2023-05-11T13:19:30;99453.44;;;20.19;43.92
7962;BME280;4026;43.652;24.906;2023-05-11T13:21:58;99436.06;;;20.27;44.76
7962;BME280;4026;43.652;24.906;2023-05-11T13:24:25;99440.78;;;20.24;45.69
7962;BME280;4026;43.652;24.906;2023-05-11T13:26:53;99434.75;;;20.40;45.89